Kaycee, Wyoming
Current Conditions -  °F | °C
As of 11:53 PM on Saturday 22 Nov 2014 (Local Time) from KBYG Reporting Station
Clear Clear  
Wind Chill: 25°   Ceiling: Unl
Heat Index: 36°   Visibility: 10mi
Dew Point:   Wind: 22mph
Humidity: 30%   Direction: 310°NW
Pressure: 29.61"   Gusts: 32mph
Location:  43.71°N, 106.64°W
Report Text: KBYG 230653Z AUTO 31019G28KT 10SM CLR 02/M14 A2961 RMK AO2 PK WND 31028/0646 SLP016 T00221139 401221028 $
Loading
Personal Weather Stations






























Interactive Weather Map New forecast layout! Learn more

10-Day Weather Forecast

Advertisements
Track Severe Weather on mobile